createdAt,value
2022-10-23T00:01:52.700Z,92.53
2022-10-23T00:07:00.501Z,92.60
2022-10-23T00:13:46.853Z,92.53
2022-10-23T00:19:24.245Z,92.64
2022-10-23T00:25:20.554Z,92.31
2022-10-23T00:54:01.198Z,92.39
2022-10-23T01:00:39.622Z,92.76
2022-10-23T01:05:53.109Z,92.87
2022-10-23T01:12:37.520Z,93.01
2022-10-23T01:26:47.201Z,92.58
2022-10-23T01:40:02.226Z,92.63
2022-10-23T01:53:11.753Z,92.53
2022-10-23T01:58:22.239Z,92.74
2022-10-23T02:11:57.569Z,92.81
2022-10-23T02:34:21.766Z,92.57
2022-10-23T02:47:46.330Z,92.70
2022-10-23T03:01:40.365Z,92.22
2022-10-23T03:23:32.901Z,91.81
2022-10-23T03:29:33.912Z,91.86
2022-10-23T03:36:19.692Z,91.60
2022-10-23T03:58:25.929Z,91.05
2022-10-23T04:04:03.539Z,90.38
2022-10-23T04:18:40.974Z,90.98
2022-10-23T04:32:09.258Z,91.29
2022-10-23T04:37:26.045Z,91.30
2022-10-23T04:42:36.257Z,90.75
2022-10-23T04:56:25.624Z,90.17
2022-10-23T05:03:29.767Z,89.29
2022-10-23T05:09:01.335Z,89.45
2022-10-23T05:29:53.690Z,89.09
2022-10-23T06:06:30.063Z,89.70
2022-10-23T06:12:02.482Z,90.48
2022-10-23T06:17:16.806Z,90.50
2022-10-23T06:23:41.990Z,90.76
2022-10-23T06:38:18.162Z,91.04
2022-10-23T06:43:33.778Z,91.18
2022-10-23T06:50:15.748Z,91.89
2022-10-23T06:55:25.632Z,91.65
2022-10-23T07:16:43.890Z,92.74
2022-10-23T07:30:39.409Z,92.77
2022-10-23T07:35:51.023Z,92.68
2022-10-23T07:42:45.549Z,93.10
2022-10-23T07:47:55.432Z,92.98
2022-10-23T07:55:31.722Z,93.49
2022-10-23T08:02:25.957Z,93.72
2022-10-23T08:30:23.241Z,93.72
2022-10-23T08:36:20.114Z,94.13
2022-10-23T09:06:26.496Z,93.86
2022-10-23T09:11:51.985Z,94.13
2022-10-23T09:17:28.469Z,94.22
2022-10-23T09:31:03.855Z,93.86
2022-10-23T09:36:24.665Z,93.90
2022-10-23T09:49:36.973Z,94.10
2022-10-23T10:03:55.894Z,93.83
2022-10-23T10:17:26.386Z,93.56
2022-10-23T10:37:31.253Z,93.49
2022-10-23T10:51:40.120Z,93.38
2022-10-23T11:04:16.018Z,93.33
2022-10-23T11:15:53.284Z,93.03
2022-10-23T11:21:32.625Z,92.75
2022-10-23T11:27:54.168Z,92.93
2022-10-23T11:34:18.077Z,92.96
2022-10-23T11:39:32.526Z,92.55
2022-10-23T11:44:51.786Z,92.19
2022-10-23T11:50:28.886Z,91.79
2022-10-23T11:55:36.669Z,91.59
2022-10-23T12:00:57.256Z,91.29
2022-10-23T12:06:08.475Z,91.29
2022-10-23T12:11:44.501Z,91.45
2022-10-23T12:16:50.897Z,91.01
2022-10-23T12:22:02.394Z,91.07
2022-10-23T12:27:31.219Z,91.23
2022-10-23T12:33:21.723Z,90.96
2022-10-23T12:38:33.876Z,91.08
2022-10-23T12:44:02.172Z,90.70
2022-10-23T12:49:28.699Z,91.00
2022-10-23T12:54:48.369Z,90.61
2022-10-23T13:00:27.841Z,90.78
2022-10-23T13:05:41.427Z,90.52
2022-10-23T13:11:01.878Z,90.38
2022-10-23T13:16:28.983Z,91.03
2022-10-23T13:21:36.282Z,90.70
2022-10-23T13:26:45.525Z,90.30
2022-10-23T13:31:53.458Z,90.25
2022-10-23T13:37:04.703Z,90.26
2022-10-23T13:42:17.469Z,90.22
2022-10-23T13:47:25.245Z,90.21
2022-10-23T13:52:33.084Z,90.51
2022-10-23T13:57:39.370Z,90.66
2022-10-23T14:02:48.001Z,90.27
2022-10-23T14:07:54.392Z,90.52
2022-10-23T14:13:00.466Z,90.15
2022-10-23T14:18:08.649Z,89.76
2022-10-23T14:23:15.512Z,89.64
2022-10-23T14:28:24.725Z,89.36
2022-10-23T14:33:32.752Z,89.56
2022-10-23T14:38:39.967Z,89.58
2022-10-23T14:43:46.300Z,89.57
2022-10-23T14:48:59.874Z,89.60
2022-10-23T14:54:09.470Z,89.06
2022-10-23T14:59:16.624Z,89.05
2022-10-23T15:04:26.157Z,89.43
2022-10-23T15:09:35.475Z,89.20
2022-10-23T15:14:49.332Z,89.42
2022-10-23T15:20:01.127Z,89.27
2022-10-23T15:25:14.224Z,88.86
2022-10-23T15:30:26.454Z,89.41
2022-10-23T15:35:34.230Z,89.19
2022-10-23T15:40:45.490Z,89.27
2022-10-23T15:45:51.554Z,89.40
2022-10-23T15:51:00.304Z,89.56
2022-10-23T15:56:08.095Z,89.49
2022-10-23T16:01:15.249Z,89.24
2022-10-23T16:06:33.851Z,89.31
2022-10-23T16:11:42.948Z,89.38
2022-10-23T16:16:53.919Z,89.63
2022-10-23T16:22:03.515Z,89.85
2022-10-23T16:27:10.416Z,90.44
2022-10-23T16:32:17.736Z,90.48
2022-10-23T16:37:26.955Z,90.35
2022-10-23T16:43:03.664Z,90.49
2022-10-23T16:48:18.724Z,90.40
2022-10-23T16:53:30.894Z,90.45
2022-10-23T16:58:38.210Z,90.77
2022-10-23T17:03:49.000Z,90.13
2022-10-23T17:08:58.279Z,89.84
2022-10-23T17:14:29.781Z,89.89
2022-10-23T17:19:45.244Z,90.95
2022-10-23T17:24:54.630Z,90.98
2022-10-23T17:30:01.604Z,91.15
2022-10-23T17:35:14.004Z,90.69
2022-10-23T17:40:25.091Z,90.52
2022-10-23T17:45:34.587Z,90.15
2022-10-23T17:50:42.524Z,90.08
2022-10-23T17:55:51.009Z,89.52
2022-10-23T18:00:57.698Z,89.51
2022-10-23T18:06:09.822Z,89.60
2022-10-23T18:11:22.166Z,89.03
2022-10-23T18:16:29.670Z,88.84
2022-10-23T18:21:38.633Z,88.50
2022-10-23T18:26:48.801Z,88.02
2022-10-23T18:31:57.029Z,86.80
2022-10-23T18:37:07.700Z,87.60
2022-10-23T18:42:15.854Z,86.51
2022-10-23T18:47:23.053Z,87.01
2022-10-23T18:52:33.829Z,86.15
2022-10-23T18:57:43.484Z,86.39
2022-10-23T19:02:52.420Z,85.61
2022-10-23T19:08:01.472Z,85.99
2022-10-23T19:13:10.778Z,86.19
2022-10-23T19:18:18.111Z,85.94
2022-10-23T19:23:27.496Z,85.54
2022-10-23T19:28:37.677Z,86.21
2022-10-23T19:33:44.669Z,85.60
2022-10-23T19:38:53.079Z,86.49
2022-10-23T19:44:02.791Z,85.90
2022-10-23T19:49:11.634Z,86.36
2022-10-23T19:54:19.944Z,87.22
2022-10-23T19:59:28.187Z,87.31
2022-10-23T20:04:36.982Z,86.74
2022-10-23T20:09:43.523Z,86.66
2022-10-23T20:14:54.691Z,86.13
2022-10-23T20:20:01.842Z,86.22
2022-10-23T20:25:10.264Z,85.81
2022-10-23T20:30:18.527Z,85.38
2022-10-23T20:35:25.342Z,85.26
2022-10-23T20:40:31.864Z,85.53
2022-10-23T20:45:41.207Z,84.93
2022-10-23T20:50:48.677Z,84.74
2022-10-23T20:55:55.113Z,83.58
2022-10-23T21:01:06.822Z,84.43
2022-10-23T21:06:16.242Z,84.66
2022-10-23T21:11:22.525Z,84.15
2022-10-23T21:16:33.431Z,83.82
2022-10-23T21:21:39.968Z,82.28
2022-10-23T21:26:46.517Z,82.53
2022-10-23T21:32:01.387Z,83.80
2022-10-23T21:37:14.964Z,84.46
2022-10-23T21:42:22.007Z,84.01
2022-10-23T21:47:31.338Z,83.15
2022-10-23T21:52:37.304Z,81.99
2022-10-23T21:57:43.412Z,83.14
2022-10-23T22:02:51.655Z,83.07
2022-10-23T22:07:57.881Z,83.62
2022-10-23T22:13:03.664Z,83.70
2022-10-23T22:18:11.912Z,83.66
2022-10-23T22:23:18.092Z,83.61
2022-10-23T22:28:24.693Z,82.62
2022-10-23T22:33:34.222Z,82.01
2022-10-23T22:38:40.131Z,82.26
2022-10-23T22:43:46.555Z,82.20
2022-10-23T22:48:54.364Z,82.75
2022-10-23T22:54:01.384Z,82.96
2022-10-23T22:59:07.492Z,84.13
2022-10-23T23:09:46.514Z,81.94
2022-10-23T23:14:52.443Z,82.88
2022-10-23T23:20:00.456Z,82.55
2022-10-23T23:25:07.504Z,83.00
2022-10-23T23:30:13.923Z,81.49
2022-10-23T23:35:22.161Z,82.06
2022-10-23T23:40:28.199Z,82.86
2022-10-23T23:45:35.321Z,83.04
2022-10-23T23:50:43.081Z,83.14
2022-10-23T23:55:49.177Z,82.13
